Latest Weather Observations for Tamworth Airport

IDN60801

Issued at 8:35 pm EST Thursday 2 October 2014 (issued every 30 minutes, with the page automatically refreshed every 10 minutes)

About weather observations | Map of weather stations | Latest weather observations for NSW | Other Formats
Station Details ID: 055325 Name: TAMWORTH AIRPORT AWS Lat: -31.07 Lon: 150.84 Height: 394.9 m
Data from the previous 72 hours. | See also: Recent months at Tamworth Airport
Date/Time
EST
Temp
°C
App
Temp
°C
Dew
Point
Rel
Hum
%
Delta-T
°C
Wind Press
QNH
hPa
Press
MSL
hPa
Rain
since 9 am
mm
Dir
 
Spd
km/h
Gust
km/h
Spd
kts
Gust
kts
02/08:30pm 13.3 11.2 -0.7 38 5.8 NNE 0 6 0 3 1020.5 1019.6 0.0
02/08:00pm 14.7 12.7 -0.2 36 6.4 NNE 0 0 0 0 1020.4 1019.5 0.0
02/07:30pm 14.8 12.9 0.3 37 6.3 CALM 0 0 0 0 1020.2 1019.2 0.0
02/07:00pm 15.4 11.8 -2.1 30 7.2 S 7 9 4 5 1020.0 1019.0 0.0
02/06:30pm 18.0 13.8 -0.8 28 8.2 S 11 11 6 6 1019.8 1018.8 0.0
02/06:00pm 18.0 13.7 -1.3 27 8.3 SSW 11 13 6 7 1019.5 1018.5 0.0
02/05:30pm 21.0 16.8 -0.9 23 9.8 SSW 11 15 6 8 1019.4 1018.4 0.0
02/05:00pm 22.5 17.5 -0.9 21 10.6 WSW 15 19 8 10 1019.3 1018.3 0.0
02/04:30pm 23.1 18.5 -1.1 20 11.0 WSW 13 24 7 13 1019.2 1018.2 0.0
02/04:00pm 23.6 19.2 -2.8 17 11.6 W 11 19 6 10 1019.1 1018.1 0.0
02/03:30pm 24.0 18.6 -1.0 19 11.4 W 17 30 9 16 1019.0 1018.0 0.0
02/03:00pm 23.3 18.5 -2.3 18 11.3 WNW 13 26 7 14 1019.1 1018.1 0.0
02/02:30pm 23.5 18.1 -1.4 19 11.3 WSW 17 26 9 14 1019.2 1018.2 0.0
02/02:00pm 23.3 19.1 -0.9 20 11.0 WNW 11 22 6 12 1019.3 1018.3 0.0
02/01:30pm 22.7 18.1 -0.7 21 10.6 WNW 13 20 7 11 1019.6 1018.6 0.0
02/01:00pm 21.8 17.7 -0.2 23 10.0 W 11 22 6 12 1020.0 1019.0 0.0
02/12:30pm 21.1 16.6 -0.2 24 9.7 NNW 13 24 7 13 1020.5 1019.6 0.0
02/12:00pm 21.4 16.7 1.1 26 9.4 WSW 15 24 8 13 1021.0 1020.0 0.0
02/11:00am 19.9 15.5 2.7 32 8.2 NW 15 20 8 11 1021.8 1020.8 0.0
02/10:30am 19.2 15.2 3.0 34 7.7 W 13 24 7 13 1022.1 1021.1 0.0
02/10:00am 18.3 15.0 2.6 35 7.3 NNW 9 17 5 9 1022.4 1021.4 0.0
02/09:30am 17.2 14.3 2.8 38 6.7 SE 7 13 4 7 1022.7 1021.8 0.0
02/09:00am 15.4 12.4 1.9 40 6.1 ESE 7 13 4 7 1022.9 1022.0 0.0
02/08:30am 14.9 11.5 2.1 42 5.8 SE 9 15 5 8 1022.9 1022.0 0.0
02/08:00am 14.0 10.0 2.6 46 5.1 ESE 13 19 7 10 1022.6 1021.7 0.0
02/07:30am 12.4 8.0 2.6 51 4.4 SSE 15 17 8 9 1022.5 1021.5 0.0
02/07:00am 11.1 6.6 2.2 54 3.9 SSE 15 19 8 10 1022.5 1021.5 0.0
02/06:30am 9.6 5.1 2.2 60 3.2 SE 15 19 8 10 1022.4 1021.4 0.0
02/06:00am 7.6 3.1 2.1 68 2.3 SE 15 19 8 10 1022.2 1021.2 0.0
02/05:30am 6.3 1.6 1.2 70 2.1 SSE 15 19 8 10 1021.9 1020.9 0.0
02/05:00am 6.7 2.4 1.2 68 2.2 SE 13 19 7 10 1021.6 1020.6 0.0
02/04:30am 8.0 2.6 1.4 63 2.8 SE 19 22 10 12 1021.4 1020.4 0.0
02/04:00am 7.4 2.4 1.5 66 2.4 SE 17 20 9 11 1021.4 1020.4 0.0
02/03:30am 7.0 1.4 1.5 68 2.3 SSE 20 20 11 11 1021.2 1020.2 0.0
02/03:00am 7.0 1.6 1.1 66 2.4 SSE 19 20 10 11 1021.2 1020.2 0.0
02/02:30am 10.7 4.3 1.0 51 4.1 ESE 24 33 13 18 1021.2 1020.2 0.0
02/02:00am 10.1 4.5 1.5 55 3.7 ESE 20 33 11 18 1021.2 1020.2 0.0
02/01:30am 8.7 4.1 1.4 60 3.1 SE 15 19 8 10 1021.4 1020.4 0.0
02/01:00am 9.4 4.1 1.6 58 3.3 SE 19 22 10 12 1021.6 1020.6 0.0
02/12:30am 10.0 4.1 1.9 57 3.5 SSE 22 26 12 14 1021.8 1020.8 0.0
02/12:00am 8.9 4.6 1.3 59 3.2 SSE 13 19 7 10 1021.4 1020.4 0.0
 
Date/Time
EST
Temp
°C
App
Temp
°C
Dew
Point
Rel
Hum
%
Delta-T
°C
Wind Press
QNH
hPa
Press
MSL
hPa
Rain
since 9 am
mm
Dir
 
Spd
km/h
Gust
km/h
Spd
kts
Gust
kts
01/11:30pm 9.1 4.4 0.6 55 3.5 SE 15 20 8 11 1021.1 1020.1 0.0
01/11:00pm 10.7 5.3 1.3 52 4.0 SE 19 20 10 11 1020.8 1019.8 0.0
01/10:30pm 9.2 4.0 0.1 53 3.7 SSE 17 20 9 11 1020.9 1019.9 0.0
01/10:00pm 9.8 4.0 -1.3 46 4.4 SSE 19 20 10 11 1020.3 1019.4 0.0
01/09:30pm 10.3 5.1 -3.0 39 5.1 SSE 15 20 8 11 1020.0 1019.0 0.0
01/09:00pm 10.5 5.2 -3.6 37 5.3 SSE 15 19 8 10 1020.3 1019.4 0.0
01/08:30pm 10.9 6.2 -4.7 33 5.8 SSE 11 15 6 8 1019.9 1018.9 0.0
01/08:00pm 11.0 6.3 -5.5 31 6.0 S 11 15 6 8 1019.4 1018.4 0.0
01/07:30pm 13.0 7.5 -5.5 27 6.9 SSW 15 17 8 9 1019.1 1018.1 0.0
01/07:00pm 14.3 8.8 -5.4 25 7.5 SSW 15 15 8 8 1018.8 1017.8 0.0
01/06:30pm 14.2 8.6 -6.1 24 7.6 SSW 15 17 8 9 1018.3 1017.3 0.0
01/06:00pm 16.7 11.0 -7.0 19 8.9 SSW 15 20 8 11 1017.9 1016.9 0.0
01/05:30pm 19.6 13.1 -7.7 15 10.5 SSW 19 26 10 14 1017.5 1016.5 0.0
01/05:00pm 21.2 15.4 -4.8 17 10.8 SW 17 24 9 13 1017.4 1016.4 0.0
01/04:30pm 21.8 15.8 -6.8 14 11.5 SSW 17 24 9 13 1017.3 1016.3 0.0
01/04:00pm 22.2 16.3 -5.6 15 11.4 SSW 17 30 9 16 1017.0 1016.0 0.0
01/03:30pm 22.6 15.6 -3.7 17 11.3 SSW 24 33 13 18 1016.9 1015.9 0.0
01/03:00pm 23.4 16.6 -2.2 18 11.4 SSW 24 41 13 22 1016.8 1015.8 0.0
01/02:30pm 23.4 15.4 -2.2 18 11.4 S 30 37 16 20 1016.6 1015.6 0.0
01/02:00pm 24.3 18.0 -4.0 15 12.2 SW 20 30 11 16 1016.7 1015.7 0.0
01/01:30pm 23.9 18.0 -1.1 19 11.4 NW 20 24 11 13 1016.6 1015.6 0.0
01/01:00pm 23.7 17.9 -1.3 19 11.3 W 19 28 10 15 1017.0 1016.0 0.0
01/12:30pm 23.2 17.3 -1.0 20 11.0 SW 20 32 11 17 1017.2 1016.2 0.0
01/12:00pm 23.8 18.0 0.2 21 11.0 W 20 33 11 18 1017.1 1016.1 0.0
01/11:30am 23.4 18.6 2.8 26 10.1 W 17 30 9 16 1017.3 1016.3 0.0
01/11:00am 23.1 18.3 2.6 26 9.9 W 17 24 9 13 1017.5 1016.5 0.0
01/10:30am 22.6 18.3 1.0 24 10.1 WSW 13 20 7 11 1017.8 1016.8 0.0
01/10:00am 21.6 16.7 2.3 28 9.2 SW 17 26 9 14 1018.0 1017.0 0.0
01/09:30am 21.5 17.1 2.7 29 9.0 W 15 22 8 12 1018.2 1017.7 0.0
01/09:00am 20.8 16.8 3.1 31 8.5 WNW 13 20 7 11 1018.0 1017.6 0.0
01/08:30am 20.0 16.5 3.3 33 8.0 W 11 20 6 11 1017.9 1017.5 0.0
01/08:00am 19.1 14.8 3.3 35 7.5 WSW 15 22 8 12 1017.8 1017.4 0.0
01/07:30am 18.2 13.1 2.9 36 7.2 W 19 20 10 11 1017.8 1017.4 0.0
01/07:00am 17.9 14.2 2.6 36 7.1 N 11 19 6 10 1017.5 1017.1 0.0
01/06:30am 16.6 13.0 3.0 40 6.3 WNW 11 19 6 10 1016.6 1016.2 0.0
01/06:00am 16.4 10.6 2.4 39 6.4 WNW 22 28 12 15 1015.7 1015.2 0.0
01/05:30am 16.7 11.5 2.7 39 6.5 WNW 19 24 10 13 1015.2 1014.8 0.0
01/05:00am 15.2 11.0 3.7 46 5.4 NW 15 19 8 10 1014.6 1014.2 0.0
01/04:30am 17.1 12.7 4.8 44 6.0 WNW 17 22 9 12 1014.5 1014.1 0.0
01/04:00am 15.9 13.2 5.8 51 5.0 NW 9 13 5 7 1014.1 1013.7 0.0
01/03:30am 15.9 13.3 6.3 53 4.8 N 9 11 5 6 1013.7 1013.2 0.0
01/03:00am 15.6 13.4 6.1 53 4.7 NNE 7 9 4 5 1013.6 1013.1 0.0
01/02:30am 16.5 13.8 5.5 48 5.4 N 9 11 5 6 1013.7 1013.2 0.0
01/02:00am 17.5 14.3 6.7 49 5.5 NW 13 17 7 9 1014.0 1013.5 0.0
01/01:30am 17.3 15.3 7.1 51 5.2 NNW 7 13 4 7 1014.0 1013.5 0.0
01/01:00am 17.4 14.6 6.9 50 5.3 NW 11 15 6 8 1013.9 1013.4 0.0
01/12:30am 18.0 15.5 6.5 47 5.8 NNW 9 13 5 7 1014.0 1013.5 0.0
01/12:00am 19.3 15.4 7.1 45 6.3 NW 17 19 9 10 1014.3 1013.9 0.0
 
Date/Time
EST
Temp
°C
App
Temp
°C
Dew
Point
Rel
Hum
%
Delta-T
°C
Wind Press
QNH
hPa
Press
MSL
hPa
Rain
since 9 am
mm
Dir
 
Spd
km/h
Gust
km/h
Spd
kts
Gust
kts
30/11:30pm 20.4 16.4 8.1 45 6.5 NW 19 22 10 12 1014.2 1013.8 0.0
30/11:00pm 17.0 14.2 8.4 57 4.5 W 13 15 7 8 1014.1 1013.7 0.0
30/10:30pm 17.5 14.7 8.4 55 4.8 WNW 13 15 7 8 1014.3 1013.9 0.0
30/10:00pm 17.9 15.1 8.5 54 4.9 W 13 15 7 8 1014.6 1014.2 0.0
30/09:30pm 18.2 15.4 8.5 53 5.1 W 13 17 7 9 1014.7 1014.3 0.0
30/09:00pm 20.8 18.1 9.1 47 6.3 NNW 13 17 7 9 1014.7 1014.3 0.0
30/08:30pm 19.7 17.9 9.3 51 5.6 NW 9 13 5 7 1014.9 1014.5 0.0
30/08:00pm 21.4 19.7 9.9 48 6.3 N 9 11 5 6 1014.7 1014.3 0.0
30/07:30pm 21.9 19.3 9.4 45 6.8 N 13 17 7 9 1014.7 1014.3 0.0
30/07:00pm 23.2 19.3 6.9 35 8.6 NNE 17 19 9 10 1014.6 1014.2 0.0
30/06:30pm 24.8 22.0 7.0 32 9.5 N 11 13 6 7 1015.0 1014.6 0.0
30/06:00pm 25.0 22.3 7.2 32 9.5 N 11 17 6 9 1015.0 1014.6 0.0
30/05:30pm 25.1 23.4 7.7 33 9.4 NW 6 7 3 4 1015.2 1014.8 0.0
30/05:00pm 27.1 24.7 7.0 28 10.8 WSW 9 13 5 7 1014.8 1014.4 0.0
30/04:30pm 27.4 23.4 6.8 27 11.1 W 17 22 9 12 1015.0 1014.6 0.0
30/04:00pm 28.9 23.0 5.7 23 12.4 W 26 32 14 17 1014.8 1014.4 0.0
30/03:30pm 30.0 25.7 5.3 21 13.1 NNW 17 20 9 11 1014.8 1014.4 0.0
30/03:00pm 30.3 26.8 5.6 21 13.2 NNW 13 17 7 9 1014.9 1014.5 0.0
30/02:30pm 29.0 24.1 5.1 22 12.6 NNW 20 30 11 16 1015.3 1014.9 0.0
30/02:00pm 30.1 25.5 5.4 21 13.2 NW 19 28 10 15 1015.9 1015.4 0.0
30/01:30pm 29.8 25.6 5.8 22 12.9 NNW 17 24 9 13 1016.2 1015.7 0.0
30/01:00pm 29.4 25.8 6.7 24 12.3 WNW 15 24 8 13 1016.7 1016.3 0.0
30/12:30pm 29.2 25.7 7.2 25 12.0 W 15 22 8 12 1017.1 1016.7 0.0
30/12:00pm 28.4 25.9 6.5 25 11.8 W 9 20 5 11 1017.6 1017.2 0.0
30/11:30am 27.0 23.2 5.9 26 11.2 WNW 15 22 8 12 1018.3 1017.8 0.0
30/11:00am 26.7 22.1 5.6 26 11.1 WNW 19 26 10 14 1018.5 1018.1 0.0
30/10:30am 26.9 23.1 5.8 26 11.1 NNW 15 26 8 14 1018.7 1018.3 0.0
30/10:00am 26.9 22.6 7.9 30 10.4 N 20 26 11 14 1019.3 1018.9 0.0
30/09:41am 25.7 19.9 7.8 32 9.7 N 28 41 15 22 1019.1 1018.7 0.0
30/09:30am 24.3 21.9 7.0 33 9.2 N 9 13 5 7 1019.4 1019.0 0.0
30/09:00am 22.5 20.9 8.6 41 7.5 NE 7 13 4 7 1019.7 1019.3 0.0
30/08:30am 20.1 18.3 8.1 46 6.3 SSE 7 13 4 7 1019.7 1019.3 0.0
30/08:00am 18.7 17.2 8.4 51 5.4 ESE 6 7 3 4 1019.8 1019.4 0.0
30/07:30am 16.8 15.2 8.0 56 4.5 SE 6 9 3 5 1019.7 1019.3 0.0
30/07:00am 14.8 12.6 7.8 63 3.5 SE 9 11 5 6 1019.5 1019.1 0.0
30/06:30am 11.1 10.2 7.8 80 1.6 SW 2 7 1 4 1019.3 1018.9 0.0
30/06:00am 10.7 9.4 6.1 73 2.2 SSE 2 7 1 4 1019.0 1018.6 0.0
30/05:30am 11.5 9.0 6.6 72 2.4 SSE 9 9 5 5 1018.8 1018.4 0.0
30/05:00am 11.7 9.6 6.8 72 2.4 SSE 7 13 4 7 1018.5 1018.1 0.0
30/04:30am 11.3 8.8 6.6 73 2.3 S 9 11 5 6 1018.4 1017.9 0.0
30/04:00am 12.1 9.7 7.0 71 2.5 S 9 13 5 7 1018.3 1017.8 0.0
30/03:30am 12.4 10.4 7.3 71 2.5 SE 7 11 4 6 1018.3 1017.8 0.0
30/03:00am 12.4 9.3 7.3 71 2.5 SE 13 15 7 8 1018.2 1017.7 0.0
30/02:30am 11.1 8.2 6.6 74 2.2 SSW 11 13 6 7 1018.6 1018.2 0.0
30/02:00am 11.6 10.1 6.7 72 2.4 E 4 9 2 5 1018.4 1017.9 0.0
30/01:30am 12.1 9.3 7.0 71 2.5 SE 11 13 6 7 1018.6 1018.2 0.0
30/01:00am 12.5 9.1 7.8 73 2.3 SE 15 17 8 9 1018.8 1018.4 0.0
30/12:30am 11.9 9.6 7.4 74 2.2 SSE 9 13 5 7 1019.0 1018.6 0.0
30/12:00am 12.0 9.2 7.1 72 2.4 S 11 13 6 7 1019.1 1018.7 0.0
 
Date/Time
EST
Temp
°C
App
Temp
°C
Dew
Point
Rel
Hum
%
Delta-T
°C
Wind Press
QNH
hPa
Press
MSL
hPa
Rain
since 9 am
mm
Dir
 
Spd
km/h
Gust
km/h
Spd
kts
Gust
kts
29/11:30pm 12.3 10.5 7.0 70 2.6 SW 6 7 3 4 1019.2 1018.8 0.0
29/11:00pm 12.6 12.0 7.5 71 2.5 CALM 0 6 0 3 1019.3 1018.9 0.0
29/10:30pm 14.5 12.4 6.8 60 3.8 E 7 9 4 5 1019.3 1018.9 0.0
29/10:00pm 15.0 12.6 7.1 59 4.0 SE 9 9 5 5 1019.4 1019.0 0.0
29/09:30pm 15.3 13.9 7.1 58 4.1 S 4 7 2 4 1019.4 1019.0 0.0
29/09:00pm 14.8 14.0 6.6 58 4.1 CALM 0 6 0 3 1019.1 1018.7 0.0

Other Formats:

Comma delimited format used in spreadsheet applications
http://www.bom.gov.au/fwo/IDN60801/IDN60801.95762.axf

JavaScript Object Notation format (JSON) in row-major order
http://www.bom.gov.au/fwo/IDN60801/IDN60801.95762.json